Home   Weather   Italy   Ancona   Past weeks
Flag for Italy

Past Weather in Ancona, Italy — Yesterday and Last 2 Weeks

Currently: 36 °F. Chilly. (Weather station: Falconara, Italy). See more current weather

Past Weather in Ancona — Graph

°F

Ancona Temperature Yesterday

Maximum temperature yesterday: 50 °F (at 12:50 pm)
Minimum temperature yesterday: 36 °F (at 9:20 pm)
Average temperature yesterday: 43 °F

High & Low Weather Summary for the Past Weeks

 TemperatureHumidityPressure
High57 °F (Jan 18, 12:20 pm)100% (Jan 22, 11:50 am)30.36 "Hg (Jan 22, 11:50 am)
Low34 °F (Jan 20, 4:20 am)44% (Jan 18, 2:20 pm)29.09 "Hg (Jan 17, 2:20 pm)
Average44 °F80%29.84 "Hg
* Reported Jan 16 7:20 am — Jan 31 7:50 am, Ancona. Weather by CustomWeather, © 2023

Note: Actual official high and low records may vary slightly from our data, if they occured in-between our weather recording intervals... More about our weather records

Ancona Weather History for the Previous 24 Hours

Scroll right to see more
 ConditionsComfort  
Time TempWeatherWind HumidityBarometerVisibility
7:50 am
Tue, Jan 31
34 °FChilly.2 mph87%30.18 "Hg6 mi
7:20 am36 °FChilly.3 mph87%30.15 "HgN/A
6:50 am36 °FChilly.5 mph93%30.15 "HgN/A
6:20 am36 °FChilly.5 mph93%30.15 "HgN/A
5:50 am37 °FChilly.5 mph87%30.15 "HgN/A
5:20 am37 °FChilly.5 mph87%30.12 "HgN/A
4:50 am39 °FChilly.5 mph81%30.12 "HgN/A
4:20 am39 °FChilly.5 mph87%30.12 "HgN/A
3:50 am39 °FChilly.3 mph87%30.12 "HgN/A
3:20 am39 °FChilly.1 mph81%30.12 "HgN/A
2:50 am39 °FPassing clouds.3 mph87%30.09 "HgN/A
2:20 am39 °FPassing clouds.1 mph81%30.09 "HgN/A
1:50 am39 °FChilly.3 mph81%30.09 "HgN/A
12:20 am37 °FChilly.3 mph87%30.07 "HgN/A
11:50 pm
Mon, Jan 30
36 °FChilly.2 mph87%30.04 "HgN/A
10:50 pm37 °FChilly.2 mph87%30.04 "HgN/A
10:20 pm36 °FChilly.2 mph93%30.01 "HgN/A
9:50 pm36 °FChilly.2 mph87%30.01 "HgN/A
9:20 pm36 °FChilly.3 mph87%29.98 "HgN/A
8:20 pm41 °FQuite cool.3 mph76%29.98 "HgN/A
7:50 pm43 °FQuite cool.3 mph71%29.98 "HgN/A
7:20 pm43 °FQuite cool.5 mph71%29.98 "HgN/A
6:50 pm43 °FQuite cool.6 mph71%29.98 "HgN/A
6:20 pm43 °FQuite cool.5 mph76%30.01 "HgN/A
5:50 pm45 °FQuite cool.5 mph71%30.01 "HgN/A
5:20 pm45 °FQuite cool.2 mph66%30.01 "HgN/A
4:50 pm46 °FCool.6 mph62%30.01 "HgN/A
4:20 pm48 °FCool.6 mph54%30.01 "HgN/A
3:50 pm48 °FCool.5 mph62%30.01 "HgN/A
3:20 pm48 °FPassing clouds.6 mph58%30.01 "HgN/A
2:50 pm46 °FPartly sunny.9 mph62%30.01 "HgN/A
2:20 pm50 °FPartly sunny.6 mph54%30.01 "HgN/A
1:50 pm48 °FScattered clouds.9 mph62%30.04 "HgN/A
1:20 pm50 °FCool.2 mph50%30.04 "HgN/A
12:50 pm50 °FCool.3 mph47%30.07 "HgN/A
12:20 pm48 °FCool.6 mph54%30.09 "HgN/A
11:50 am48 °FCool.6 mph50%30.12 "HgN/A
11:20 am46 °FCool.6 mph57%30.12 "HgN/A
10:50 am46 °FCool.6 mph62%30.15 "HgN/A
10:20 am45 °FQuite cool.5 mph66%30.15 "HgN/A
9:50 am43 °FQuite cool.3 mph71%30.15 "HgN/A
9:20 am43 °FQuite cool.3 mph71%30.15 "HgN/A
Weather by CustomWeather, © 2023

See weather overview